Time;durP1;ratioP1;P1;durP2;ratioP2;P2;SDS_P1;SDS_P2;PMS_P1;PMS_P2;Temp;Humidity;BMP_temperature;BMP_pressure;BME280_temperature;BME280_humidity;BME280_pressure;Samples;Min_cycle;Max_cycle;Signal;HPM_P1;HPM_P2
2023/07/08 00:00:24;;;;;;;0.00;0.00;;;18.60;99.90;;;;;;5063294;28;20070;-91
2023/07/08 00:02:50;;;;;;;0.00;0.00;;;18.50;99.90;;;;;;5064903;28;20032;-90
2023/07/08 00:05:18;;;;;;;0.00;0.00;;;18.50;99.90;;;;;;5063595;28;20696;-91
2023/07/08 00:07:44;;;;;;;0.00;0.00;;;;;;;;;;5064761;28;20024;-90
2023/07/08 00:10:25;;;;;;;0.00;0.00;;;18.50;99.90;;;;;;5063659;28;20115;-91
2023/07/08 00:12:54;;;;;;;0.00;0.00;;;18.40;99.90;;;;;;5083531;28;20052;-91
2023/07/08 00:15:24;;;;;;;0.00;0.00;;;18.40;99.90;;;;;;5076285;28;20177;-92
2023/07/08 00:17:49;;;;;;;0.00;0.00;;;18.30;99.90;;;;;;5065325;28;20032;-90
2023/07/08 00:20:15;;;;;;;0.00;0.00;;;;;;;;;;5060890;28;20390;-91
2023/07/08 00:22:41;;;;;;;0.00;0.00;;;;;;;;;;5077014;28;20051;-91
2023/07/08 00:25:08;;;;;;;0.00;0.00;;;18.20;99.90;;;;;;5065515;28;20024;-90
2023/07/08 00:27:33;;;;;;;0.00;0.00;;;18.30;99.90;;;;;;5063366;28;20475;-90
2023/07/08 00:30:00;;;;;;;0.00;0.00;;;;;;;;;;5065825;28;20050;-90
2023/07/08 00:32:26;;;;;;;0.00;0.00;;;;;;;;;;5064007;28;20016;-90
2023/07/08 00:34:52;;;;;;;0.00;0.00;;;;;;;;;;5084022;28;20498;-90
2023/07/08 00:37:18;;;;;;;0.00;0.00;;;;;;;;;;5081455;28;20024;-88
2023/07/08 00:39:44;;;;;;;0.00;0.00;;;;;;;;;;5065235;28;20021;-89
2023/07/08 00:42:15;;;;;;;0.00;0.00;;;18.10;99.90;;;;;;5064564;28;20028;-91
2023/07/08 00:44:42;;;;;;;0.00;0.00;;;;;;;;;;5062914;28;20166;-90
2023/07/08 00:47:13;;;;;;;0.00;0.00;;;18.10;99.90;;;;;;5065082;28;20031;-91
2023/07/08 00:50:02;;;;;;;0.00;0.00;;;18.10;99.90;;;;;;5057976;28;20024;-90
2023/07/08 00:52:29;;;;;;;0.00;0.00;;;18.10;99.90;;;;;;5053506;28;20029;-91
2023/07/08 00:55:02;;;;;;;0.00;0.00;;;18.00;99.90;;;;;;5066591;28;20024;-90
2023/07/08 00:57:31;;;;;;;0.00;0.00;;;18.00;99.90;;;;;;5060829;28;20115;-90
2023/07/08 01:00:04;;;;;;;;;;;18.00;99.90;;;;;;5071986;28;20065;-89
2023/07/08 01:02:31;;;;;;;0.00;0.00;;;17.90;99.90;;;;;;5067588;28;19922;-90
2023/07/08 01:05:20;;;;;;;0.00;0.00;;;17.80;99.90;;;;;;5070980;28;20048;-91
2023/07/08 01:07:51;;;;;;;0.00;0.00;;;17.80;99.90;;;;;;5067591;28;20040;-90
2023/07/08 01:10:22;;;;;;;0.00;0.00;;;17.80;99.90;;;;;;5068273;28;20085;-89
2023/07/08 01:12:54;;;;;;;0.00;0.00;;;17.80;99.90;;;;;;5086682;28;20032;-91
2023/07/08 01:15:24;;;;;;;0.00;0.00;;;17.80;99.90;;;;;;5086835;28;20467;-90
2023/07/08 01:17:53;;;;;;;0.00;0.00;;;17.80;99.90;;;;;;5066637;28;20384;-91
2023/07/08 01:20:19;;;;;;;0.00;0.00;;;17.80;99.90;;;;;;5068734;28;20029;-90
2023/07/08 01:22:45;;;;;;;0.00;0.00;;;;;;;;;;5069602;28;20543;-91
2023/07/08 01:25:13;;;;;;;0.00;0.00;;;17.70;99.90;;;;;;5069821;28;20028;-91
2023/07/08 01:27:45;;;;;;;0.00;0.00;;;17.80;99.90;;;;;;5069254;28;20031;-91
2023/07/08 01:30:11;;;;;;;0.00;0.00;;;17.80;99.90;;;;;;5069831;28;20028;-91
2023/07/08 01:32:43;;;;;;;0.00;0.00;;;17.80;99.90;;;;;;5068502;28;20070;-90
2023/07/08 01:35:11;;;;;;;0.00;0.00;;;17.80;99.90;;;;;;5087634;28;20034;-90
2023/07/08 01:37:42;;;;;;;0.00;0.00;;;17.80;99.90;;;;;;5069160;28;20039;-90
2023/07/08 01:40:36;;;;;;;0.00;0.00;;;17.80;99.90;;;;;;5088807;28;20263;-91
2023/07/08 01:43:03;;;;;;;0.00;0.00;;;17.80;99.90;;;;;;5062309;28;20100;-91
2023/07/08 01:45:36;;;;;;;0.00;0.00;;;17.80;99.90;;;;;;5059523;28;20029;-89
2023/07/08 01:48:05;;;;;;;0.00;0.00;;;17.70;99.90;;;;;;5084065;28;20070;-89
2023/07/08 01:50:32;;;;;;;0.00;0.00;;;17.70;99.90;;;;;;5091577;28;20024;-91
2023/07/08 01:53:00;;;;;;;0.00;0.00;;;17.60;99.90;;;;;;5058564;28;20491;-89
2023/07/08 01:55:28;;;;;;;0.00;0.00;;;17.70;99.90;;;;;;5069181;28;20020;-90
2023/07/08 01:57:54;;;;;;;0.00;0.00;;;;;;;;;;5064359;28;20025;-91
2023/07/08 02:00:21;;;;;;;0.00;0.00;;;17.60;99.90;;;;;;5066956;28;20478;-89
2023/07/08 02:02:47;;;;;;;0.00;0.00;;;17.60;99.90;;;;;;5063587;28;20029;-91
2023/07/08 02:05:13;;;;;;;0.00;0.00;;;;;;;;;;5064574;28;20027;-89
2023/07/08 02:07:39;;;;;;;0.00;0.00;;;;;;;;;;5063898;28;20473;-90
2023/07/08 02:10:05;;;;;;;0.00;0.00;;;17.50;99.90;;;;;;5086821;28;20055;-89
2023/07/08 02:12:31;;;;;;;0.00;0.00;;;;;;;;;;5084363;28;20112;-90
2023/07/08 02:14:59;;;;;;;0.00;0.00;;;17.50;99.90;;;;;;5061676;28;20063;-89
2023/07/08 02:17:25;;;;;;;0.00;0.00;;;17.50;99.90;;;;;;5066813;28;20025;-90
2023/07/08 02:19:50;;;;;;;0.00;0.00;;;17.50;99.90;;;;;;5086688;28;20444;-90
2023/07/08 02:22:16;;;;;;;0.00;0.00;;;;;;;;;;5067219;28;20032;-89
2023/07/08 02:24:42;;;;;;;0.00;0.00;;;;;;;;;;5083448;28;20024;-89
2023/07/08 02:27:08;;;;;;;0.00;0.00;;;;;;;;;;5069041;28;20026;-89
2023/07/08 02:29:34;;;;;;;0.00;0.00;;;17.30;99.90;;;;;;5063738;28;20040;-89
2023/07/08 02:32:00;;;;;;;0.00;0.00;;;;;;;;;;5088305;28;20028;-90
2023/07/08 02:34:26;;;;;;;0.00;0.00;;;;;;;;;;5068349;28;20804;-90
2023/07/08 02:36:52;;;;;;;0.00;0.00;;;;;;;;;;5065608;28;20031;-90
2023/07/08 02:39:18;;;;;;;0.00;0.00;;;;;;;;;;5064070;28;20037;-90
2023/07/08 02:41:43;;;;;;;0.00;0.00;;;;;;;;;;5065913;28;20036;-89
2023/07/08 02:44:09;;;;;;;0.00;0.00;;;;;;;;;;5061432;28;20025;-89
2023/07/08 02:46:35;;;;;;;0.00;0.00;;;;;;;;;;5066934;28;20016;-90
2023/07/08 02:49:01;;;;;;;0.00;0.00;;;;;;;;;;5064695;28;20026;-90
2023/07/08 02:51:27;;;;;;;0.00;0.00;;;;;;;;;;5067619;28;20024;-89
2023/07/08 02:53:54;;;;;;;0.00;0.00;;;17.00;99.90;;;;;;5065600;28;20992;-89
2023/07/08 02:56:22;;;;;;;0.00;0.00;;;;;;;;;;5060947;28;20400;-90
2023/07/08 02:58:48;;;;;;;0.00;0.00;;;;;;;;;;5065037;28;20016;-89
2023/07/08 03:01:17;;;;;;;0.00;0.00;;;;;;;;;;5062086;28;20091;-90
2023/07/08 03:06:13;;;;;;;0.00;0.00;;;17.00;99.90;;;;;;5082980;28;20036;-88
2023/07/08 03:08:39;;;;;;;0.00;0.00;;;17.00;99.90;;;;;;5074016;28;20036;-88
2023/07/08 03:11:07;;;;;;;0.00;0.00;;;17.00;99.90;;;;;;5092307;28;20017;-87
2023/07/08 03:13:33;;;;;;;0.00;0.00;;;16.90;99.90;;;;;;5079365;28;20020;-87
2023/07/08 03:16:00;;;;;;;0.00;0.00;;;16.90;99.90;;;;;;5074357;28;20518;-88
2023/07/08 03:18:26;;;;;;;0.00;0.00;;;16.90;99.90;;;;;;5077297;28;20484;-88
2023/07/08 03:20:55;;;;;;;0.00;0.00;;;16.90;99.90;;;;;;5075997;28;20477;-88
2023/07/08 03:23:21;;;;;;;0.00;0.00;;;;;;;;;;5076025;28;20028;-88
2023/07/08 03:25:48;;;;;;;0.00;0.00;;;16.90;99.90;;;;;;5075832;28;20034;-90
2023/07/08 03:28:16;;;;;;;0.00;0.00;;;17.00;99.90;;;;;;5075844;28;20024;-87
2023/07/08 03:30:44;;;;;;;0.00;0.00;;;16.90;99.90;;;;;;5075909;28;20094;-87
2023/07/08 03:33:10;;;;;;;0.00;0.00;;;16.90;99.90;;;;;;5075712;28;20068;-88
2023/07/08 03:35:36;;;;;;;0.00;0.00;;;16.90;99.90;;;;;;5075596;28;20028;-88
2023/07/08 03:38:02;;;;;;;0.00;0.00;;;;;;;;;;5075747;28;20538;-87
2023/07/08 03:40:28;;;;;;;0.00;0.00;;;16.90;99.90;;;;;;5075753;28;20055;-89
2023/07/08 03:42:53;;;;;;;0.00;0.00;;;16.80;99.90;;;;;;5075628;28;20465;-89
2023/07/08 03:45:19;;;;;;;0.00;0.00;;;16.80;99.90;;;;;;5075735;28;20402;-87
2023/07/08 03:47:44;;;;;;;0.00;0.00;;;16.60;99.90;;;;;;5075715;28;20115;-86
2023/07/08 03:50:22;;;;;;;0.00;0.00;;;16.50;99.90;;;;;;5075391;28;20024;-87
2023/07/08 03:52:49;;;;;;;0.00;0.00;;;16.50;99.90;;;;;;5075740;28;20271;-86
2023/07/08 03:55:15;;;;;;;0.00;0.00;;;16.50;99.90;;;;;;5075864;28;20028;-86
2023/07/08 03:57:41;;;;;;;0.00;0.00;;;;;;;;;;5075357;28;20114;-87
2023/07/08 04:00:11;;;;;;;0.00;0.00;;;16.40;99.90;;;;;;5075053;28;20104;-86
2023/07/08 04:02:38;;;;;;;0.00;0.00;;;16.40;99.90;;;;;;5075178;28;20492;-88
2023/07/08 04:05:04;;;;;;;0.00;0.00;;;16.40;99.90;;;;;;5074840;28;20036;-87
2023/07/08 04:07:29;;;;;;;0.00;0.00;;;16.40;99.90;;;;;;5074964;28;20043;-87
2023/07/08 04:09:55;;;;;;;0.00;0.00;;;;;;;;;;5075231;28;20115;-89
2023/07/08 04:12:21;;;;;;;0.00;0.00;;;16.40;99.90;;;;;;5075068;28;20032;-88
2023/07/08 04:14:47;;;;;;;0.00;0.00;;;;;;;;;;5075164;28;20024;-88
2023/07/08 04:17:13;;;;;;;0.00;0.00;;;16.60;99.90;;;;;;5075017;28;20465;-87
2023/07/08 04:19:39;;;;;;;0.00;0.00;;;16.40;99.90;;;;;;5075335;28;20056;-90
2023/07/08 04:22:08;;;;;;;0.00;0.00;;;16.30;99.90;;;;;;5074916;28;20467;-88
2023/07/08 04:24:34;;;;;;;0.00;0.00;;;;;;;;;;5075312;28;20071;-89
2023/07/08 04:27:00;;;;;;;0.00;0.00;;;;;;;;;;5074833;28;20464;-89
2023/07/08 04:29:26;;;;;;;0.00;0.00;;;;;;;;;;5077088;28;20032;-88
2023/07/08 04:31:52;;;;;;;0.00;0.00;;;;;;;;;;5079198;28;20064;-89
2023/07/08 04:34:19;;;;;;;0.00;0.00;;;;;;;;;;5079193;28;20016;-88
2023/07/08 04:36:45;;;;;;;0.00;0.00;;;16.40;99.90;;;;;;5078939;28;20024;-88
2023/07/08 04:39:11;;;;;;;0.00;0.00;;;16.40;99.90;;;;;;5078597;28;20119;-89
2023/07/08 04:41:40;;;;;;;0.00;0.00;;;16.30;99.90;;;;;;5079201;28;20028;-88
2023/07/08 04:44:10;;;;;;;0.00;0.00;;;16.40;99.90;;;;;;5078891;28;20020;-90
2023/07/08 04:46:50;;;;;;;0.00;0.00;;;16.40;99.90;;;;;;5078404;28;20516;-87
2023/07/08 04:49:16;;;;;;;0.00;0.00;;;16.40;99.90;;;;;;5078768;28;20052;-91
2023/07/08 04:51:42;;;;;;;0.00;0.00;;;;;;;;;;5078722;28;20381;-87
2023/07/08 04:54:08;;;;;;;0.00;0.00;;;;;;;;;;5078483;28;20020;-87
2023/07/08 04:56:37;;;;;;;0.00;0.00;;;16.90;99.90;;;;;;5078650;28;20361;-87
2023/07/08 04:59:03;;;;;;;0.00;0.00;;;16.90;99.90;;;;;;5078333;28;20114;-89
2023/07/08 05:01:29;;;;;;;0.00;0.00;;;17.00;99.90;;;;;;5078500;28;20122;-88
2023/07/08 05:03:55;;;;;;;0.00;0.00;;;17.00;99.90;;;;;;5078025;28;20032;-90
2023/07/08 05:06:20;;;;;;;0.00;0.00;;;17.10;99.90;;;;;;5078260;28;20020;-88
2023/07/08 05:08:46;;;;;;;0.00;0.00;;;;;;;;;;5078062;28;20027;-87
2023/07/08 05:11:12;;;;;;;0.00;0.00;;;;;;;;;;5078209;28;20020;-89
2023/07/08 05:13:38;;;;;;;0.00;0.00;;;;;;;;;;5077832;28;20024;-88
2023/07/08 05:16:04;;;;;;;0.00;0.00;;;17.40;99.90;;;;;;5078186;28;20028;-90
2023/07/08 05:18:29;;;;;;;0.00;0.00;;;;;;;;;;5077838;28;20024;-90
2023/07/08 05:20:56;;;;;;;0.00;0.00;;;;;;;;;;5078006;28;20051;-89
2023/07/08 05:23:21;;;;;;;0.00;0.00;;;17.60;99.90;;;;;;5077769;28;20088;-89
2023/07/08 05:25:47;;;;;;;0.00;0.00;;;;;;;;;;5077809;28;20115;-87
2023/07/08 05:28:13;;;;;;;0.00;0.00;;;;;;;;;;5077695;28;20093;-88
2023/07/08 05:30:42;;;;;;;0.00;0.00;;;18.00;99.90;;;;;;5077721;28;20031;-89
2023/07/08 05:33:08;;;;;;;0.00;0.00;;;18.10;99.90;;;;;;5077875;28;20032;-88
2023/07/08 05:35:34;;;;;;;0.00;0.00;;;18.10;99.90;;;;;;5077612;28;20024;-89
2023/07/08 05:37:59;;;;;;;0.00;0.00;;;18.30;99.90;;;;;;5077237;28;20026;-88
2023/07/08 05:40:25;;;;;;;0.00;0.00;;;;;;;;;;5077283;28;20028;-88
2023/07/08 05:42:51;;;;;;;0.00;0.00;;;;;;;;;;5077037;28;20086;-88
2023/07/08 05:45:17;;;;;;;0.00;0.00;;;;;;;;;;5077266;28;20085;-89
2023/07/08 05:47:43;;;;;;;0.00;0.00;;;;;;;;;;5077005;28;20020;-88
2023/07/08 05:50:09;;;;;;;0.00;0.00;;;18.60;99.90;;;;;;5076918;28;20038;-90
2023/07/08 05:52:35;;;;;;;0.00;0.00;;;;;;;;;;5076822;28;20480;-88
2023/07/08 05:55:01;;;;;;;0.00;0.00;;;;;;;;;;5076807;28;20032;-87
2023/07/08 05:57:26;;;;;;;0.00;0.00;;;18.50;99.90;;;;;;5076331;28;20063;-86
2023/07/08 05:59:52;;;;;;;0.00;0.00;;;;;;;;;;5069343;28;20033;-87
2023/07/08 06:02:25;;;;;;;0.00;0.00;;;18.60;99.90;;;;;;5076186;28;20028;-87
2023/07/08 06:04:50;;;;;;;0.00;0.00;;;18.60;99.90;;;;;;5076338;28;20027;-86
2023/07/08 06:07:16;;;;;;;0.00;0.00;;;;;;;;;;5076796;28;20020;-87
2023/07/08 06:09:42;;;;;;;0.00;0.00;;;;;;;;;;5076042;28;20468;-86
2023/07/08 06:12:08;;;;;;;0.00;0.00;;;18.80;99.90;;;;;;5076364;28;20028;-88
2023/07/08 06:14:34;;;;;;;0.00;0.00;;;;;;;;;;5076636;28;20504;-89
2023/07/08 06:16:59;;;;;;;0.00;0.00;;;19.00;99.90;;;;;;5076663;28;20046;-88
2023/07/08 06:19:25;;;;;;;0.00;0.00;;;;;;;;;;5076551;28;20264;-89
2023/07/08 06:21:51;;;;;;;0.00;0.00;;;;;;;;;;5065615;28;20040;-89
2023/07/08 06:24:17;;;;;;;0.00;0.00;;;;;;;;;;5064929;28;20027;-89
2023/07/08 06:26:43;;;;;;;0.00;0.00;;;19.40;99.90;;;;;;5066828;28;20016;-86
2023/07/08 06:29:08;;;;;;;0.00;0.00;;;19.60;99.90;;;;;;5075608;28;20384;-86
2023/07/08 06:31:34;;;;;;;0.00;0.00;;;19.80;99.90;;;;;;5075547;28;20503;-86
2023/07/08 06:34:00;;;;;;;0.00;0.00;;;20.00;99.90;;;;;;5068426;28;20024;-88
2023/07/08 06:36:26;;;;;;;0.00;0.00;;;20.00;99.90;;;;;;5076030;28;20573;-88
2023/07/08 06:38:52;;;;;;;0.00;0.00;;;;;;;;;;5075905;28;20024;-87
2023/07/08 06:41:17;;;;;;;0.00;0.00;;;20.10;99.90;;;;;;5075532;28;20100;-87
2023/07/08 06:43:43;;;;;;;0.00;0.00;;;20.20;99.90;;;;;;5075132;28;20049;-87
2023/07/08 06:46:09;;;;;;;0.00;0.00;;;;;;;;;;5075877;28;20098;-86
2023/07/08 06:48:36;;;;;;;0.00;0.00;;;20.50;99.90;;;;;;5075589;28;20016;-87
2023/07/08 06:51:02;;;;;;;0.00;0.00;;;20.40;99.90;;;;;;5075064;28;20016;-88
2023/07/08 06:53:28;;;;;;;0.00;0.00;;;20.60;99.90;;;;;;5067242;28;20042;-87
2023/07/08 06:55:53;;;;;;;0.00;0.00;;;21.00;99.90;;;;;;5072713;28;20491;-87
2023/07/08 06:58:18;;;;;;;0.00;0.00;;;21.10;99.90;;;;;;5075228;28;20562;-87
2023/07/08 07:00:45;;;;;;;0.00;0.00;;;21.00;99.90;;;;;;5074674;28;20042;-87
2023/07/08 07:03:11;;;;;;;0.00;0.00;;;21.00;99.90;;;;;;5074638;28;20047;-88
2023/07/08 07:05:37;;;;;;;0.00;0.00;;;20.90;99.90;;;;;;5074725;28;20028;-88
2023/07/08 07:08:04;;;;;;;0.00;0.00;;;21.00;99.90;;;;;;5068431;28;20018;-88
2023/07/08 07:10:30;;;;;;;0.00;0.00;;;21.00;99.90;;;;;;5093525;28;20417;-88
2023/07/08 07:12:55;;;;;;;0.00;0.00;;;21.20;99.90;;;;;;5075998;28;20015;-88
2023/07/08 07:15:21;;;;;;;0.00;0.00;;;21.20;99.90;;;;;;5061128;28;20020;-86
2023/07/08 07:17:46;;;;;;;0.00;0.00;;;21.50;99.90;;;;;;5074388;28;20024;-87
2023/07/08 07:20:12;;;;;;;0.00;0.00;;;21.70;99.90;;;;;;5075375;28;20032;-88
2023/07/08 07:22:38;;;;;;;0.00;0.00;;;;;;;;;;5093266;28;20620;-87
2023/07/08 07:25:04;;;;;;;0.00;0.00;;;21.80;99.90;;;;;;5067178;28;20023;-88
2023/07/08 07:27:30;;;;;;;0.00;0.00;;;21.80;99.90;;;;;;5075307;28;20023;-88
2023/07/08 07:29:59;;;;;;;0.00;0.00;;;22.00;99.90;;;;;;5074842;28;20358;-87
2023/07/08 07:32:25;;;;;;;0.00;0.00;;;;;;;;;;5075680;28;20293;-87
2023/07/08 07:34:51;;;;;;;0.00;0.00;;;;;;;;;;5074538;28;20470;-89
2023/07/08 07:37:19;;;;;;;0.00;0.00;;;22.10;99.90;;;;;;5074690;28;20020;-88
2023/07/08 07:39:45;;;;;;;0.00;0.00;;;;;;;;;;5074941;28;20028;-88
2023/07/08 07:42:13;;;;;;;0.00;0.00;;;22.30;99.90;;;;;;5074734;28;20091;-87
2023/07/08 07:44:39;;;;;;;0.00;0.00;;;;;;;;;;5074735;28;20543;-88
2023/07/08 07:47:05;;;;;;;0.00;0.00;;;22.40;99.90;;;;;;5074878;28;20039;-89
2023/07/08 07:49:31;;;;;;;0.00;0.00;;;22.40;99.90;;;;;;5074816;28;20024;-88
2023/07/08 07:51:57;;;;;;;0.00;0.00;;;;;;;;;;5074813;28;20065;-88
2023/07/08 07:54:22;;;;;;;0.00;0.00;;;22.70;99.90;;;;;;5072653;28;20031;-88
2023/07/08 07:56:48;;;;;;;0.00;0.00;;;22.90;99.90;;;;;;5073241;28;20043;-88
2023/07/08 07:59:14;;;;;;;0.00;0.00;;;;;;;;;;5074819;28;20081;-87
2023/07/08 08:01:41;;;;;;;0.00;0.00;;;23.00;99.90;;;;;;5074376;28;20024;-88
2023/07/08 08:04:08;;;;;;;0.00;0.00;;;;;;;;;;5073243;28;20072;-89
2023/07/08 08:06:34;;;;;;;0.00;0.00;;;23.20;99.90;;;;;;5074210;28;20111;-89
2023/07/08 08:08:59;;;;;;;0.00;0.00;;;23.30;99.90;;;;;;5073631;28;20494;-88
2023/07/08 08:11:25;;;;;;;0.00;0.00;;;;;;;;;;5074012;28;20074;-87
2023/07/08 08:13:52;;;;;;;0.00;0.00;;;;;;;;;;5074158;28;20032;-88
2023/07/08 08:16:18;;;;;;;0.00;0.00;;;;;;;;;;5074245;28;20043;-88
2023/07/08 08:18:44;;;;;;;0.00;0.00;;;;;;;;;;5074041;28;20025;-88
2023/07/08 08:21:09;;;;;;;0.00;0.00;;;;;;;;;;5074125;28;20427;-87
2023/07/08 08:23:35;;;;;;;0.00;0.00;;;24.10;99.00;;;;;;5073962;28;20024;-88
2023/07/08 08:26:01;;;;;;;0.00;0.00;;;;;;;;;;5074326;28;20597;-88
2023/07/08 08:28:27;;;;;;;0.00;0.00;;;;;;;;;;5074009;28;20024;-87
2023/07/08 08:30:52;;;;;;;0.00;0.00;;;24.30;99.40;;;;;;5073671;28;20024;-89
2023/07/08 08:33:19;;;;;;;0.00;0.00;;;24.30;99.90;;;;;;5073358;28;20028;-88
2023/07/08 08:35:44;;;;;;;0.00;0.00;;;24.30;99.90;;;;;;5074054;28;20070;-88
2023/07/08 08:38:11;;;;;;;0.00;0.00;;;;;;;;;;5073687;28;20507;-89
2023/07/08 08:40:37;;;;;;;0.00;0.00;;;;;;;;;;5073720;28;20032;-89
2023/07/08 08:43:22;;;;;;;0.00;0.00;;;24.30;99.80;;;;;;5073358;28;20039;-89
2023/07/08 08:45:57;;;;;;;0.00;0.00;;;24.30;99.70;;;;;;5073764;28;20020;-87
2023/07/08 08:48:24;;;;;;;0.00;0.00;;;24.50;99.90;;;;;;5091588;28;20028;-88
2023/07/08 08:50:59;;;;;;;0.00;0.00;;;24.50;99.90;;;;;;5073564;28;20123;-88
2023/07/08 08:53:26;;;;;;;0.00;0.00;;;24.50;99.90;;;;;;5073668;28;20020;-88
2023/07/08 08:56:04;;;;;;;0.00;0.00;;;24.40;99.90;;;;;;5068900;28;20028;-88
2023/07/08 08:58:49;;;;;;;0.00;0.00;;;24.50;99.60;;;;;;5073595;28;20045;-87
2023/07/08 09:01:16;;;;;;;0.00;0.00;;;24.60;99.80;;;;;;5060843;28;20098;-88
2023/07/08 09:03:54;;;;;;;0.00;0.00;;;24.80;98.70;;;;;;5073229;28;20028;-88
2023/07/08 09:06:28;;;;;;;0.00;0.00;;;24.90;99.90;;;;;;5062419;28;20111;-86
2023/07/08 09:08:55;;;;;;;0.00;0.00;;;25.00;99.90;;;;;;5073224;28;20020;-88
2023/07/08 09:11:42;;;;;;;0.00;0.00;;;25.00;99.90;;;;;;5073912;28;20020;-87
2023/07/08 09:14:35;;;;;;;0.00;0.00;;;25.00;99.30;;;;;;5072833;28;20055;-88
2023/07/08 09:17:22;;;;;;;0.00;0.00;;;25.20;99.30;;;;;;5075079;28;20212;-89
2023/07/08 09:19:57;;;;;;;0.00;0.00;;;25.20;98.70;;;;;;5076999;28;20103;-86
2023/07/08 09:22:45;;;;;;;0.00;0.00;;;25.40;98.50;;;;;;5076764;28;20024;-87
2023/07/08 09:25:22;;;;;;;0.00;0.00;;;25.50;99.30;;;;;;5061974;28;20065;-87
2023/07/08 09:27:47;;;;;;;0.00;0.00;;;25.50;98.30;;;;;;5076736;28;20435;-88
2023/07/08 09:30:20;;;;;;;0.00;0.00;;;25.70;98.80;;;;;;5076377;28;20016;-87
2023/07/08 09:32:46;;;;;;;0.00;0.00;;;25.60;98.60;;;;;;5076725;28;20488;-88
2023/07/08 09:35:24;;;;;;;0.00;0.00;;;25.80;97.70;;;;;;5063250;28;20032;-88
2023/07/08 09:37:50;;;;;;;0.00;0.00;;;25.70;97.60;;;;;;5076418;28;20027;-86
2023/07/08 09:40:30;;;;;;;0.00;0.00;;;25.70;97.50;;;;;;5076783;28;20024;-87
2023/07/08 09:43:00;;;;;;;0.00;0.00;;;25.70;97.80;;;;;;5076094;28;20032;-87
2023/07/08 09:45:27;;;;;;;0.00;0.00;;;26.00;97.90;;;;;;5076456;28;20061;-87
2023/07/08 09:47:56;;;;;;;0.00;0.00;;;26.10;98.10;;;;;;5076343;28;20020;-88
2023/07/08 09:50:26;;;;;;;0.00;0.00;;;26.20;97.60;;;;;;5076790;28;20111;-90
2023/07/08 09:52:57;;;;;;;0.00;0.00;;;26.20;97.80;;;;;;5076190;28;20020;-88
2023/07/08 09:55:23;;;;;;;0.00;0.00;;;26.30;97.30;;;;;;5090873;28;20437;-85
2023/07/08 09:57:52;;;;;;;0.00;0.00;;;26.40;96.30;;;;;;5076026;28;20074;-86
2023/07/08 10:00:25;;;;;;;0.00;0.00;;;26.90;96.10;;;;;;5076012;28;20480;-87
2023/07/08 10:02:58;;;;;;;0.00;0.00;;;27.10;96.30;;;;;;5076037;28;20446;-86
2023/07/08 10:05:30;;;;;;;0.00;0.00;;;27.10;95.40;;;;;;5076006;28;20024;-87
2023/07/08 10:07:57;;;;;;;0.00;0.00;;;27.20;95.50;;;;;;5073974;28;20406;-87
2023/07/08 10:10:34;;;;;;;0.00;0.00;;;27.20;95.10;;;;;;5075764;28;20491;-88
2023/07/08 10:13:04;;;;;;;0.00;0.00;;;27.20;95.20;;;;;;5075910;28;20035;-88
2023/07/08 10:15:41;;;;;;;0.00;0.00;;;27.40;95.80;;;;;;5075964;28;20149;-90
2023/07/08 10:18:15;;;;;;;0.00;0.00;;;27.30;94.00;;;;;;5073342;28;20484;-89
2023/07/08 10:21:08;;;;;;;0.00;0.00;;;27.30;93.80;;;;;;5075697;28;20491;-87
2023/07/08 10:23:43;;;;;;;0.00;0.00;;;27.40;93.40;;;;;;5068868;28;20020;-87
2023/07/08 10:26:31;;;;;;;0.00;0.00;;;27.50;92.50;;;;;;5070632;28;20427;-87
2023/07/08 10:29:28;;;;;;;0.00;0.00;;;27.60;92.50;;;;;;5075453;28;20028;-88
2023/07/08 10:32:20;;;;;;;0.00;0.00;;;27.40;91.90;;;;;;5075593;28;20103;-89
2023/07/08 10:35:12;;;;;;;0.00;0.00;;;27.50;92.50;;;;;;5074901;28;20103;-89
2023/07/08 10:37:48;;;;;;;0.00;0.00;;;27.60;92.40;;;;;;5069159;28;20077;-89
2023/07/08 10:40:33;;;;;;;0.00;0.00;;;27.60;92.40;;;;;;5075403;28;20022;-89
2023/07/08 10:43:17;;;;;;;0.00;0.00;;;27.60;93.00;;;;;;5074746;28;20024;-87
2023/07/08 10:45:53;;;;;;;0.00;0.00;;;27.80;93.20;;;;;;5075177;28;20026;-88
2023/07/08 10:48:40;;;;;;;0.00;0.00;;;28.10;91.90;;;;;;5063755;28;20044;-88
2023/07/08 10:51:12;;;;;;;0.00;0.00;;;28.00;91.50;;;;;;5071569;28;20148;-89
2023/07/08 10:54:08;;;;;;;0.00;0.00;;;28.10;92.20;;;;;;5075062;28;20048;-86
2023/07/08 10:56:40;;;;;;;0.00;0.00;;;28.20;89.90;;;;;;5071199;28;20107;-87
2023/07/08 10:59:28;;;;;;;0.00;0.00;;;28.30;85.80;;;;;;5071572;28;20088;-89
2023/07/08 11:02:27;;;;;;;0.00;0.00;;;28.50;83.00;;;;;;5074601;28;20500;-87
2023/07/08 11:05:21;;;;;;;0.00;0.00;;;28.50;85.40;;;;;;5090783;28;20032;-87
2023/07/08 11:08:16;;;;;;;0.00;0.00;;;28.40;87.30;;;;;;5070941;28;20055;-89
2023/07/08 11:10:59;;;;;;;0.00;0.00;;;28.40;83.20;;;;;;5061222;28;20118;-84
2023/07/08 11:13:30;;;;;;;0.00;0.00;;;28.60;84.70;;;;;;5065326;28;20099;-86
2023/07/08 11:16:07;;;;;;;0.00;0.00;;;28.50;84.10;;;;;;5074671;28;20111;-88
2023/07/08 11:18:51;;;;;;;0.00;0.00;;;28.60;81.00;;;;;;5066907;28;20043;-88
2023/07/08 11:21:27;;;;;;;0.00;0.00;;;28.70;83.30;;;;;;5073192;28;20122;-87
2023/07/08 11:24:24;;;;;;;0.00;0.00;;;28.60;81.60;;;;;;5074578;28;20028;-88
2023/07/08 11:27:02;;;;;;;0.00;0.00;;;28.80;81.20;;;;;;5071371;28;20032;-87
2023/07/08 11:29:39;;;;;;;0.00;0.00;;;28.80;81.60;;;;;;5065575;28;20027;-88
2023/07/08 11:32:08;;;;;;;0.00;0.00;;;29.00;82.10;;;;;;5069384;28;20027;-87
2023/07/08 11:34:34;;;;;;;;;;;29.00;81.30;;;;;;5074188;28;20024;-89
2023/07/08 11:37:00;;;;;;;0.00;0.00;;;;;;;;;;5074222;28;19911;-87
2023/07/08 11:39:31;;;;;;;0.00;0.00;;;29.00;79.40;;;;;;5074180;28;20024;-88
2023/07/08 11:42:11;;;;;;;0.00;0.00;;;29.10;80.00;;;;;;5073721;28;20126;-88
2023/07/08 11:44:43;;;;;;;0.00;0.00;;;29.10;82.90;;;;;;5067416;28;20035;-89
2023/07/08 11:47:18;;;;;;;0.00;0.00;;;29.00;81.60;;;;;;5071107;28;20496;-89
2023/07/08 11:49:45;;;;;;;0.00;0.00;;;29.10;81.10;;;;;;5074142;28;20154;-88
2023/07/08 11:52:17;;;;;;;0.00;0.00;;;29.20;79.10;;;;;;5074329;28;20028;-88
2023/07/08 11:54:47;;;;;;;0.00;0.00;;;29.20;74.30;;;;;;5070641;28;20363;-89
2023/07/08 11:57:42;;;;;;;0.00;0.00;;;29.20;77.30;;;;;;5074122;28;20039;-88
2023/07/08 12:00:24;;;;;;;0.00;0.00;;;29.20;77.10;;;;;;5069075;28;20031;-87
2023/07/08 12:02:55;;;;;;;0.00;0.00;;;29.20;79.00;;;;;;5070618;28;20098;-88
2023/07/08 12:05:36;;;;;;;0.00;0.00;;;29.20;80.80;;;;;;5092308;28;20035;-86
2023/07/08 12:08:11;;;;;;;0.00;0.00;;;29.30;77.20;;;;;;5067029;28;20020;-88
2023/07/08 12:10:49;;;;;;;0.00;0.00;;;29.30;77.60;;;;;;5073697;28;20059;-87
2023/07/08 12:13:18;;;;;;;0.00;0.00;;;29.40;76.70;;;;;;5072679;28;20107;-88
2023/07/08 12:15:44;;;;;;;0.00;0.00;;;29.40;76.90;;;;;;5070473;28;20031;-88
2023/07/08 12:18:18;;;;;;;0.00;0.00;;;29.50;75.30;;;;;;5092021;28;20028;-87
2023/07/08 12:20:56;;;;;;;0.00;0.00;;;29.60;76.50;;;;;;5066552;28;20032;-86
2023/07/08 12:23:25;;;;;;;0.00;0.00;;;29.60;75.70;;;;;;5073804;28;20473;-89
2023/07/08 12:25:51;;;;;;;0.00;0.00;;;29.60;75.00;;;;;;5071779;28;20020;-90
2023/07/08 12:28:18;;;;;;;0.00;0.00;;;29.60;78.10;;;;;;5072310;28;20020;-88
2023/07/08 12:30:45;;;;;;;0.00;0.00;;;29.70;77.10;;;;;;5107126;28;20028;-87
2023/07/08 12:33:39;;;;;;;0.00;0.00;;;29.80;75.80;;;;;;5073491;28;20111;-86
2023/07/08 12:36:05;;;;;;;0.00;0.00;;;29.80;77.00;;;;;;5055797;28;20073;-86
2023/07/08 12:38:38;;;;;;;0.00;0.00;;;30.00;75.00;;;;;;5091637;28;20067;-89
2023/07/08 12:41:17;;;;;;;0.00;0.00;;;29.90;77.80;;;;;;5066208;28;20028;-87
2023/07/08 12:43:43;;;;;;;0.00;0.00;;;29.90;78.40;;;;;;5067984;28;20024;-88
2023/07/08 12:46:10;;;;;;;0.00;0.00;;;30.00;75.50;;;;;;5073890;28;20032;-88
2023/07/08 12:48:38;;;;;;;0.00;0.00;;;30.00;72.70;;;;;;5092015;28;20397;-86
2023/07/08 12:51:05;;;;;;;0.00;0.00;;;30.00;73.30;;;;;;5095255;28;20024;-88
2023/07/08 12:53:33;;;;;;;0.00;0.00;;;30.00;76.30;;;;;;5069364;28;20028;-87
2023/07/08 12:56:00;;;;;;;0.00;0.00;;;;;;;;;;5074046;28;20024;-88
2023/07/08 12:58:28;;;;;;;0.00;0.00;;;30.30;73.40;;;;;;5077526;28;20043;-88
2023/07/08 13:00:56;;;;;;;0.00;0.00;;;30.20;74.40;;;;;;5068841;28;20077;-87
2023/07/08 13:03:25;;;;;;;0.00;0.00;;;30.30;77.50;;;;;;5073107;28;20052;-86
2023/07/08 13:05:53;;;;;;;;;;;30.30;77.80;;;;;;5077730;28;20032;-88
2023/07/08 13:08:22;;;;;;;0.00;0.00;;;30.30;74.10;;;;;;5077087;28;19957;-87
2023/07/08 13:10:50;;;;;;;0.00;0.00;;;30.40;75.40;;;;;;5072663;28;20111;-89
2023/07/08 13:13:22;;;;;;;0.00;0.00;;;30.30;75.80;;;;;;5077354;28;20038;-86
2023/07/08 13:15:48;;;;;;;0.00;0.00;;;;;;;;;;5072859;28;20035;-86
2023/07/08 13:18:19;;;;;;;0.00;0.00;;;30.40;77.10;;;;;;5072404;28;20024;-88
2023/07/08 13:20:53;;;;;;;0.00;0.00;;;30.50;77.40;;;;;;5095143;28;20020;-88
2023/07/08 13:23:20;;;;;;;0.00;0.00;;;30.60;76.70;;;;;;5076839;28;20035;-88
2023/07/08 13:25:49;;;;;;;0.00;0.00;;;31.20;75.40;;;;;;5077030;28;20028;-86
2023/07/08 13:28:30;;;;;;;0.00;0.00;;;31.10;75.60;;;;;;5076973;28;20016;-87
2023/07/08 13:31:01;;;;;;;0.00;0.00;;;31.30;71.50;;;;;;5076577;28;20503;-86